This is the latest recevied weather packets stored in our database for station/object N5DGC. If no packets are shown the sender has not sent any weather packets the latest 1 day(s).
| Time | Temp. | Humidity | Pressure | Rain* | Wind** | Luminosity | Snow |
|---|---|---|---|---|---|---|---|
| 1778027143 | 18.89° C | 36% | 1229.3 hPa | 0 mm | 0.89 m/s, 17° | 89 W/m² | - |
| 1778026839 | 19.44° C | 36% | 1229.2 hPa | 0 mm | 0 m/s | 216 W/m² | - |
| 1778026536 | 19.44° C | 35% | 1229 hPa | 0 mm | 0 m/s | 230 W/m² | - |
| 1778026233 | 19.44° C | 35% | 1229 hPa | 0 mm | 0 m/s | 187 W/m² | - |
| 1778025930 | 20° C | 34% | 1228.9 hPa | 0 mm | 0.45 m/s, 313° | 206 W/m² | - |
| 1778025628 | 20.56° C | 34% | 1228.9 hPa | 0 mm | 0 m/s | 302 W/m² | - |
| 1778025326 | 20° C | 35% | 1228.6 hPa | 0 mm | 0 m/s | 362 W/m² | - |
| 1778025022 | 18.89° C | 36% | 1229 hPa | 0 mm | 0 m/s | 266 W/m² | - |
| 1778024719 | 20° C | 34% | 1228.6 hPa | 0 mm | 0.45 m/s, 1° | 195 W/m² | - |
| 1778024416 | 19.44° C | 36% | 1228.7 hPa | 0 mm | 0.45 m/s, 45° | 289 W/m² | - |
| 1778024114 | 18.89° C | 37% | 1228.9 hPa | 0 mm | 0.89 m/s, 313° | 369 W/m² | - |
| 1778023811 | 18.89° C | 38% | 1229 hPa | 0 mm | 0.89 m/s, 352° | 390 W/m² | - |
| 1778023509 | 18.89° C | 39% | 1229.2 hPa | 0 mm | 1.34 m/s, 336° | 414 W/m² | - |
| 1778023206 | 18.33° C | 40% | 1229 hPa | 0 mm | 0.89 m/s, 18° | 507 W/m² | - |
| 1778022903 | 18.33° C | 40% | 1229 hPa | 0 mm | 1.34 m/s, 5° | 481 W/m² | - |
| 1778022601 | 18.33° C | 42% | 1229 hPa | 0 mm | 0.89 m/s, 47° | 507 W/m² | - |
| 1778022298 | 17.78° C | 45% | 1228.9 hPa | 0 mm | 0.89 m/s, 30° | 525 W/m² | - |
| 1778021994 | 17.78° C | 44% | 1229.3 hPa | 0 mm | 1.34 m/s, 348° | 529 W/m² | - |
| 1778021692 | 17.78° C | 43% | 1229.3 hPa | 0 mm | 0.45 m/s, 329° | 552 W/m² | - |
| 1778021388 | 17.78° C | 43% | 1229.1 hPa | 0 mm | 1.34 m/s, 339° | 559 W/m² | - |
| 1778021085 | 18.89° C | 40% | 1229.1 hPa | 0 mm | 1.34 m/s, 344° | 577 W/m² | - |
| 1778020782 | 18.33° C | 42% | 1229.3 hPa | 0 mm | 0.45 m/s, 358° | 595 W/m² | - |
| 1778020479 | 18.33° C | 40% | 1229.3 hPa | 0 mm | 0.45 m/s, 21° | 610 W/m² | - |
| 1778020175 | 18.89° C | 40% | 1229.4 hPa | 0 mm | 0.89 m/s, 8° | 629 W/m² | - |
| 1778019872 | 18.89° C | 39% | 1229.6 hPa | 0 mm | 2.24 m/s, 345° | 650 W/m² | - |
* Rain latest hour (hover to see other rain measurements)
** Current wind speed in m/s (hover to see current wind gust speed)